createdAt,value
2023-04-29T00:01:19.131Z,2.97
2023-04-29T00:03:47.241Z,3.05
2023-04-29T00:06:15.664Z,2.90
2023-04-29T00:08:43.862Z,3.45
2023-04-29T00:11:13.014Z,3.50
2023-04-29T00:13:42.231Z,3.85
2023-04-29T00:16:11.717Z,3.17
2023-04-29T00:18:39.736Z,3.40
2023-04-29T00:21:07.751Z,2.90
2023-04-29T00:23:36.205Z,2.95
2023-04-29T00:26:04.643Z,2.80
2023-04-29T00:28:33.157Z,3.00
2023-04-29T00:31:01.132Z,3.12
2023-04-29T00:33:29.167Z,3.55
2023-04-29T00:35:57.207Z,3.00
2023-04-29T00:38:25.185Z,3.28
2023-04-29T00:40:53.203Z,3.55
2023-04-29T00:43:21.586Z,3.08
2023-04-29T00:45:49.983Z,3.30
2023-04-29T00:48:18.299Z,3.83
2023-04-29T00:50:46.300Z,3.55
2023-04-29T00:53:14.660Z,3.35
2023-04-29T00:55:43.259Z,3.22
2023-04-29T00:58:12.114Z,2.95
2023-04-29T01:00:40.436Z,4.00
2023-04-29T01:03:08.705Z,3.62
2023-04-29T01:05:36.985Z,3.35
2023-04-29T01:08:28.449Z,3.22
2023-04-29T01:11:00.977Z,4.05
2023-04-29T01:13:49.945Z,3.78
2023-04-29T01:16:29.860Z,3.83
2023-04-29T01:18:59.837Z,3.90
2023-04-29T01:21:27.903Z,3.72
2023-04-29T01:23:58.576Z,3.22
2023-04-29T01:26:26.857Z,3.25
2023-04-29T01:29:11.299Z,3.55
2023-04-29T01:31:52.635Z,3.62
2023-04-29T01:34:44.084Z,3.92
2023-04-29T01:37:18.872Z,3.80
2023-04-29T01:40:08.031Z,3.65
2023-04-29T01:42:49.602Z,3.85
2023-04-29T01:45:20.562Z,3.75
2023-04-29T01:47:48.562Z,3.87
2023-04-29T01:50:16.701Z,3.90
2023-04-29T01:52:44.667Z,3.80
2023-04-29T01:55:12.872Z,3.80
2023-04-29T01:57:40.914Z,3.87
2023-04-29T02:00:10.438Z,3.97
2023-04-29T02:02:38.700Z,3.80
2023-04-29T02:05:07.102Z,4.10
2023-04-29T02:07:35.255Z,4.18
2023-04-29T02:10:03.257Z,4.40
2023-04-29T02:12:31.173Z,4.07
2023-04-29T02:15:00.560Z,4.20
2023-04-29T02:17:28.576Z,4.30
2023-04-29T02:19:56.572Z,4.03
2023-04-29T02:22:24.550Z,4.25
2023-04-29T02:24:53.317Z,4.05
2023-04-29T02:27:21.350Z,3.90
2023-04-29T02:29:49.380Z,4.00
2023-04-29T02:32:17.524Z,3.80
2023-04-29T02:34:45.671Z,4.20
2023-04-29T02:37:14.095Z,3.65
2023-04-29T02:39:42.614Z,3.87
2023-04-29T02:42:10.616Z,4.20
2023-04-29T02:44:39.003Z,3.97
2023-04-29T02:47:07.213Z,4.10
2023-04-29T02:49:35.227Z,3.90
2023-04-29T02:52:03.294Z,4.12
2023-04-29T02:54:31.314Z,4.65
2023-04-29T02:57:00.125Z,3.75
2023-04-29T02:59:28.089Z,3.80
2023-04-29T03:01:56.061Z,4.15
2023-04-29T03:04:24.414Z,3.83
2023-04-29T03:06:52.523Z,3.47
2023-04-29T03:09:20.530Z,3.33
2023-04-29T03:11:48.500Z,3.40
2023-04-29T03:14:16.657Z,4.10
2023-04-29T03:16:44.725Z,3.47
2023-04-29T03:19:13.359Z,3.58
2023-04-29T03:21:41.344Z,3.85
2023-04-29T03:24:09.354Z,3.70
2023-04-29T03:26:37.367Z,3.55
2023-04-29T03:29:05.392Z,3.60
2023-04-29T03:31:33.561Z,3.33
2023-04-29T03:34:01.538Z,3.42
2023-04-29T03:36:29.518Z,4.15
2023-04-29T03:38:57.453Z,3.17
2023-04-29T03:41:25.679Z,3.37
2023-04-29T03:43:53.627Z,3.40
2023-04-29T03:46:21.665Z,3.12
2023-04-29T03:48:49.658Z,3.37
2023-04-29T03:51:17.711Z,3.53
2023-04-29T03:53:45.724Z,3.67
2023-04-29T03:56:13.653Z,3.20
2023-04-29T03:58:41.648Z,3.45
2023-04-29T04:01:09.767Z,3.60
2023-04-29T04:03:38.014Z,3.03
2023-04-29T04:06:06.113Z,3.47
2023-04-29T04:08:34.066Z,3.28
2023-04-29T04:11:04.793Z,3.70
2023-04-29T04:13:32.850Z,4.35
2023-04-29T04:16:00.876Z,4.10
2023-04-29T04:18:28.931Z,4.53
2023-04-29T04:20:57.027Z,4.75
2023-04-29T04:23:25.806Z,4.55
2023-04-29T04:25:55.268Z,4.32
2023-04-29T04:28:23.544Z,4.47
2023-04-29T04:30:51.567Z,5.12
2023-04-29T04:33:19.676Z,4.60
2023-04-29T04:35:47.799Z,4.47
2023-04-29T04:38:16.607Z,4.87
2023-04-29T04:40:44.663Z,4.87
2023-04-29T04:43:12.682Z,4.67
2023-04-29T04:45:40.662Z,4.93
2023-04-29T04:48:09.232Z,5.30
2023-04-29T04:50:37.289Z,5.27
2023-04-29T04:53:05.288Z,5.60
2023-04-29T04:55:34.811Z,5.25
2023-04-29T04:58:02.877Z,5.83
2023-04-29T05:00:30.840Z,5.28
2023-04-29T05:02:59.484Z,5.73
2023-04-29T05:05:27.657Z,5.90
2023-04-29T05:07:55.620Z,5.30
2023-04-29T05:10:27.721Z,5.13
2023-04-29T05:12:55.677Z,5.67
2023-04-29T05:15:23.609Z,5.18
2023-04-29T05:17:51.817Z,5.37
2023-04-29T05:20:19.922Z,5.50
2023-04-29T05:22:47.873Z,5.47
2023-04-29T05:25:15.862Z,5.47
2023-04-29T05:27:43.843Z,5.30
2023-04-29T05:30:12.201Z,5.47
2023-04-29T05:32:40.382Z,5.40
2023-04-29T05:35:08.740Z,5.80
2023-04-29T05:37:36.991Z,5.50
2023-04-29T05:40:05.549Z,6.10
2023-04-29T05:42:33.489Z,6.82
2023-04-29T05:45:01.518Z,5.43
2023-04-29T05:47:29.725Z,6.37
2023-04-29T05:49:58.469Z,5.65
2023-04-29T05:52:26.467Z,5.13
2023-04-29T05:54:54.716Z,4.80
2023-04-29T05:57:22.729Z,4.97
2023-04-29T05:59:50.871Z,4.53
2023-04-29T06:02:19.128Z,4.87
2023-04-29T06:04:49.270Z,4.03
2023-04-29T06:07:20.121Z,4.97
2023-04-29T06:09:48.428Z,4.50
2023-04-29T06:12:16.501Z,4.15
2023-04-29T06:14:44.686Z,4.50
2023-04-29T06:17:12.690Z,3.43
2023-04-29T06:19:40.706Z,3.30
2023-04-29T06:22:08.701Z,3.80
2023-04-29T06:24:36.681Z,4.20
2023-04-29T06:27:05.942Z,3.40
2023-04-29T06:29:34.003Z,2.72
2023-04-29T06:32:02.162Z,3.15
2023-04-29T06:34:30.385Z,3.55
2023-04-29T06:36:58.346Z,3.70
2023-04-29T06:39:26.394Z,3.62
2023-04-29T06:41:54.598Z,3.10
2023-04-29T06:44:22.766Z,3.83
2023-04-29T06:46:50.942Z,4.10
2023-04-29T06:49:19.252Z,3.33
2023-04-29T06:51:47.320Z,4.33
2023-04-29T06:54:15.489Z,3.90
2023-04-29T06:56:43.548Z,4.12
2023-04-29T06:59:13.958Z,4.05
2023-04-29T07:01:44.456Z,3.87
2023-04-29T07:04:14.019Z,3.78
2023-04-29T07:06:42.253Z,3.97
2023-04-29T07:09:10.488Z,3.40
2023-04-29T07:11:38.448Z,4.05
2023-04-29T07:14:06.483Z,3.60
2023-04-29T07:16:34.555Z,3.67
2023-04-29T07:19:02.769Z,3.15
2023-04-29T07:21:32.002Z,3.42
2023-04-29T07:24:02.507Z,4.10
2023-04-29T07:26:30.480Z,3.40
2023-04-29T07:28:58.877Z,3.20
2023-04-29T07:31:27.050Z,3.33
2023-04-29T07:33:56.870Z,3.10
2023-04-29T07:36:24.878Z,3.83
2023-04-29T07:38:53.117Z,3.45
2023-04-29T07:41:21.081Z,3.08
2023-04-29T07:43:49.126Z,3.22
2023-04-29T07:46:19.525Z,3.35
2023-04-29T07:48:47.567Z,3.53
2023-04-29T07:51:16.142Z,2.22
2023-04-29T07:56:12.545Z,2.10
2023-04-29T07:58:40.534Z,2.40
2023-04-29T08:01:13.175Z,2.37
2023-04-29T08:03:42.341Z,2.35
2023-04-29T08:06:10.603Z,2.72
2023-04-29T08:08:38.974Z,3.10
2023-04-29T08:11:07.725Z,2.58
2023-04-29T08:13:35.786Z,3.60
2023-04-29T08:16:03.806Z,2.42
2023-04-29T08:18:31.889Z,3.12
2023-04-29T08:20:59.903Z,2.72
2023-04-29T08:23:28.082Z,2.40
2023-04-29T08:25:57.264Z,3.28
2023-04-29T08:28:25.392Z,3.17
2023-04-29T08:30:53.432Z,2.87
2023-04-29T08:33:21.426Z,2.90
2023-04-29T08:35:49.522Z,2.72
2023-04-29T08:38:17.844Z,2.90
2023-04-29T08:40:49.910Z,2.95
2023-04-29T08:43:17.903Z,2.83
2023-04-29T08:45:45.973Z,2.40
2023-04-29T08:48:14.006Z,2.25
2023-04-29T08:50:42.796Z,2.33
2023-04-29T08:53:11.223Z,2.00
2023-04-29T08:55:44.808Z,1.60
2023-04-29T08:58:13.899Z,1.70
2023-04-29T09:00:43.293Z,1.25
2023-04-29T09:03:28.322Z,1.17
2023-04-29T09:05:57.512Z,1.10
2023-04-29T09:08:25.632Z,1.20
2023-04-29T09:10:54.446Z,0.90
2023-04-29T09:13:30.080Z,0.90
2023-04-29T09:15:58.143Z,0.82
2023-04-29T09:18:51.743Z,0.90
2023-04-29T09:21:23.580Z,0.80
2023-04-29T09:23:53.189Z,0.80
2023-04-29T09:26:21.410Z,0.80
2023-04-29T09:28:51.177Z,0.90
2023-04-29T09:31:28.949Z,0.80
2023-04-29T09:33:58.536Z,0.57
2023-04-29T09:36:49.275Z,0.80
2023-04-29T09:39:24.734Z,0.77
2023-04-29T09:41:55.776Z,0.90
2023-04-29T09:44:29.481Z,0.80
2023-04-29T09:47:05.826Z,0.70
2023-04-29T09:49:37.298Z,1.10
2023-04-29T09:52:07.091Z,0.82
2023-04-29T09:54:37.665Z,0.80
2023-04-29T09:57:09.089Z,0.90
2023-04-29T09:59:38.841Z,1.33
2023-04-29T10:02:17.292Z,0.90
2023-04-29T10:04:49.922Z,0.60
2023-04-29T10:07:18.673Z,0.65
2023-04-29T10:09:50.197Z,0.77
2023-04-29T10:12:20.376Z,0.80
2023-04-29T10:15:03.625Z,0.80
2023-04-29T10:17:50.878Z,0.70
2023-04-29T10:20:24.270Z,0.90
2023-04-29T10:22:53.498Z,0.70
2023-04-29T10:25:22.758Z,0.70
2023-04-29T10:27:51.349Z,0.70
2023-04-29T10:30:19.687Z,0.50
2023-04-29T10:32:51.524Z,0.52
2023-04-29T10:35:21.841Z,0.70
2023-04-29T10:37:50.046Z,0.85
2023-04-29T10:40:38.244Z,0.50
2023-04-29T10:43:06.285Z,0.35
2023-04-29T10:45:36.933Z,0.60
2023-04-29T10:48:07.163Z,0.37
2023-04-29T10:50:50.819Z,0.47
2023-04-29T10:53:22.074Z,0.40
2023-04-29T10:56:17.742Z,0.52
2023-04-29T10:58:46.927Z,0.50
2023-04-29T11:01:19.008Z,0.60
2023-04-29T11:04:00.772Z,0.40
2023-04-29T11:06:38.116Z,0.70
2023-04-29T11:09:13.643Z,0.37
2023-04-29T11:11:59.439Z,0.50
2023-04-29T11:14:30.706Z,0.50
2023-04-29T11:17:00.277Z,0.35
2023-04-29T11:19:33.555Z,0.60
2023-04-29T11:22:35.455Z,0.50
2023-04-29T11:25:07.636Z,0.40
2023-04-29T11:27:40.186Z,0.50
2023-04-29T11:30:08.989Z,0.50
2023-04-29T11:32:38.668Z,0.43
2023-04-29T11:35:14.406Z,0.50
2023-04-29T11:37:43.199Z,0.60
2023-04-29T11:40:12.185Z,0.28
2023-04-29T11:42:50.088Z,0.32
2023-04-29T11:45:21.574Z,0.40
2023-04-29T11:47:49.954Z,0.40
2023-04-29T11:50:20.992Z,0.32
2023-04-29T11:52:49.533Z,0.35
2023-04-29T11:55:17.668Z,0.40
2023-04-29T11:57:45.821Z,0.50
2023-04-29T12:00:14.856Z,0.43
2023-04-29T12:02:46.169Z,0.40
2023-04-29T12:05:15.292Z,0.50
2023-04-29T12:07:44.194Z,0.75
2023-04-29T12:10:12.797Z,0.55
2023-04-29T12:12:42.203Z,0.35
2023-04-29T12:15:11.534Z,0.52
2023-04-29T12:17:40.153Z,0.35
2023-04-29T12:20:10.950Z,0.37
2023-04-29T12:22:39.227Z,0.50
2023-04-29T12:25:08.680Z,0.50
2023-04-29T12:27:37.576Z,0.40
2023-04-29T12:30:09.935Z,0.60
2023-04-29T12:32:38.688Z,0.22
2023-04-29T12:35:07.141Z,0.40
2023-04-29T12:37:35.588Z,0.50
2023-04-29T12:40:03.618Z,0.37
2023-04-29T12:42:35.530Z,0.40
2023-04-29T12:45:03.975Z,0.50
2023-04-29T12:47:36.386Z,0.55
2023-04-29T12:50:04.447Z,0.68
2023-04-29T12:52:33.634Z,0.50
2023-04-29T12:55:02.891Z,0.50
2023-04-29T12:57:30.886Z,0.70
2023-04-29T12:59:58.969Z,0.40
2023-04-29T13:02:27.378Z,0.60
2023-04-29T13:04:55.880Z,0.50
2023-04-29T13:07:24.371Z,0.47
2023-04-29T13:09:52.513Z,0.60
2023-04-29T13:12:20.499Z,0.52
2023-04-29T13:14:48.609Z,0.82
2023-04-29T13:17:16.661Z,0.73
2023-04-29T13:19:51.710Z,0.70
2023-04-29T13:22:20.390Z,1.00
2023-04-29T13:24:48.684Z,0.57
2023-04-29T13:27:16.793Z,0.50
2023-04-29T13:29:44.917Z,0.95
2023-04-29T13:32:13.209Z,0.85
2023-04-29T13:34:44.436Z,0.77
2023-04-29T13:37:13.127Z,0.80
2023-04-29T13:39:45.591Z,0.55
2023-04-29T13:42:15.827Z,0.50
2023-04-29T13:44:52.334Z,0.55
2023-04-29T13:47:25.587Z,0.90
2023-04-29T13:50:25.589Z,0.70
2023-04-29T14:00:38.206Z,1.35
2023-04-29T14:03:04.687Z,1.40
2023-04-29T14:05:32.926Z,1.05
2023-04-29T14:08:01.262Z,0.60
2023-04-29T14:10:29.405Z,0.60
2023-04-29T14:12:57.485Z,0.70
2023-04-29T14:15:25.594Z,0.50
2023-04-29T14:17:54.846Z,0.50
2023-04-29T14:20:22.962Z,0.47
2023-04-29T14:22:51.122Z,0.50
2023-04-29T14:25:19.293Z,0.52
2023-04-29T14:27:47.558Z,0.47
2023-04-29T14:30:15.543Z,0.60
2023-04-29T14:32:43.716Z,0.70
2023-04-29T14:35:14.593Z,0.68
2023-04-29T14:37:42.604Z,1.17
2023-04-29T14:40:10.975Z,0.50
2023-04-29T14:42:39.039Z,0.55
2023-04-29T14:45:08.228Z,0.45
2023-04-29T14:47:36.261Z,0.70
2023-04-29T14:50:05.548Z,0.80
2023-04-29T14:52:33.832Z,0.85
2023-04-29T14:55:02.124Z,0.62
2023-04-29T14:57:31.313Z,1.30
2023-04-29T14:59:59.367Z,0.90
2023-04-29T15:02:27.407Z,1.10
2023-04-29T15:04:56.628Z,1.60
2023-04-29T15:07:24.823Z,0.73
2023-04-29T15:09:52.855Z,0.60
2023-04-29T15:12:22.395Z,0.50
2023-04-29T15:14:50.488Z,0.50
2023-04-29T15:17:18.490Z,0.52
2023-04-29T15:19:46.610Z,0.50
2023-04-29T15:22:14.637Z,1.02
2023-04-29T15:24:42.948Z,0.95
2023-04-29T15:27:11.099Z,0.60
2023-04-29T15:29:39.910Z,0.50
2023-04-29T15:32:08.272Z,1.33
2023-04-29T15:34:36.301Z,0.85
2023-04-29T15:37:04.334Z,2.12
2023-04-29T15:39:32.334Z,1.45
2023-04-29T15:42:00.688Z,1.30
2023-04-29T15:44:28.669Z,1.30
2023-04-29T15:46:56.729Z,1.12
2023-04-29T15:49:25.484Z,1.05
2023-04-29T15:51:53.654Z,1.10
2023-04-29T15:54:21.877Z,0.85
2023-04-29T15:56:50.357Z,0.80
2023-04-29T15:59:18.369Z,0.60
2023-04-29T16:01:46.596Z,0.80
2023-04-29T16:04:14.834Z,1.17
2023-04-29T16:06:43.115Z,1.08
2023-04-29T16:09:13.361Z,0.90
2023-04-29T16:11:41.341Z,1.00
2023-04-29T16:14:09.649Z,0.90
2023-04-29T16:16:37.761Z,0.90
2023-04-29T16:19:05.786Z,1.12
2023-04-29T16:21:34.292Z,0.90
2023-04-29T16:24:02.264Z,0.95
2023-04-29T16:26:30.280Z,1.00
2023-04-29T16:28:59.330Z,0.90
2023-04-29T16:31:27.404Z,1.08
2023-04-29T16:33:58.406Z,1.40
2023-04-29T16:36:27.637Z,1.50
2023-04-29T16:38:56.443Z,1.65
2023-04-29T16:41:24.833Z,1.23
2023-04-29T16:43:52.925Z,1.20
2023-04-29T16:46:21.051Z,0.82
2023-04-29T16:48:49.089Z,0.80
2023-04-29T16:51:16.998Z,0.90
2023-04-29T16:53:45.149Z,0.80
2023-04-29T16:56:13.662Z,0.80
2023-04-29T16:58:41.656Z,0.70
2023-04-29T17:01:09.639Z,0.80
2023-04-29T17:03:37.604Z,0.70
2023-04-29T17:06:06.844Z,0.80
2023-04-29T17:08:34.912Z,0.90
2023-04-29T17:11:03.043Z,0.85
2023-04-29T17:13:31.375Z,0.80
2023-04-29T17:15:59.576Z,0.65
2023-04-29T17:18:27.528Z,0.90
2023-04-29T17:20:55.455Z,1.15
2023-04-29T17:23:23.412Z,0.70
2023-04-29T17:25:51.391Z,0.75
2023-04-29T17:28:19.571Z,0.75
2023-04-29T17:30:47.768Z,0.90
2023-04-29T17:33:15.775Z,0.90
2023-04-29T17:35:43.737Z,0.82
2023-04-29T17:38:13.313Z,0.80
2023-04-29T17:40:41.233Z,0.60
2023-04-29T17:43:09.327Z,1.10
2023-04-29T17:45:41.218Z,0.90
2023-04-29T17:48:09.421Z,1.30
2023-04-29T17:50:39.491Z,1.30
2023-04-29T17:53:07.844Z,0.70
2023-04-29T17:55:35.840Z,0.90
2023-04-29T17:58:03.882Z,1.12
2023-04-29T18:00:32.137Z,1.27
2023-04-29T18:03:00.261Z,1.00
2023-04-29T18:05:28.519Z,0.88
2023-04-29T18:07:56.552Z,1.10
2023-04-29T18:10:24.521Z,1.00
2023-04-29T18:12:52.559Z,0.85
2023-04-29T18:15:23.520Z,3.55
2023-04-29T18:17:52.365Z,1.37
2023-04-29T18:20:20.351Z,1.15
2023-04-29T18:22:48.593Z,0.93
2023-04-29T18:25:17.719Z,1.40
2023-04-29T18:27:45.852Z,1.00
2023-04-29T18:30:14.172Z,1.40
2023-04-29T18:32:42.333Z,1.27
2023-04-29T18:35:10.766Z,1.40
2023-04-29T18:37:38.807Z,1.30
2023-04-29T18:40:07.529Z,1.60
2023-04-29T18:42:35.626Z,1.30
2023-04-29T18:45:03.797Z,1.60
2023-04-29T18:47:31.774Z,1.83
2023-04-29T18:49:59.736Z,1.40
2023-04-29T18:52:27.854Z,1.50
2023-04-29T18:54:55.928Z,1.40
2023-04-29T18:57:24.095Z,1.50
2023-04-29T18:59:53.379Z,1.48
2023-04-29T19:02:21.615Z,1.50
2023-04-29T19:04:49.604Z,1.40
2023-04-29T19:07:17.663Z,1.30
2023-04-29T19:09:45.704Z,1.40
2023-04-29T19:12:13.678Z,1.50
2023-04-29T19:14:41.740Z,1.60
2023-04-29T19:17:09.707Z,1.60
2023-04-29T19:19:37.634Z,1.83
2023-04-29T19:22:06.802Z,1.92
2023-04-29T19:24:36.762Z,1.80
2023-04-29T19:27:05.417Z,2.30
2023-04-29T19:29:33.387Z,1.87
2023-04-29T19:32:01.424Z,2.10
2023-04-29T19:34:29.470Z,2.30
2023-04-29T19:36:57.706Z,2.10
2023-04-29T19:39:25.681Z,2.33
2023-04-29T19:41:53.692Z,2.47
2023-04-29T19:44:21.660Z,2.10
2023-04-29T19:46:53.294Z,2.17
2023-04-29T19:49:21.691Z,2.40
2023-04-29T19:51:49.679Z,2.25
2023-04-29T19:54:18.307Z,2.78
2023-04-29T19:56:46.301Z,2.30
2023-04-29T19:59:14.644Z,2.30
2023-04-29T20:01:42.632Z,2.40
2023-04-29T20:04:12.565Z,2.50
2023-04-29T20:06:41.068Z,2.47
2023-04-29T20:09:10.673Z,2.70
2023-04-29T20:11:38.682Z,2.62
2023-04-29T20:14:06.825Z,2.40
2023-04-29T20:16:36.784Z,2.25
2023-04-29T20:19:04.773Z,2.50
2023-04-29T20:21:32.979Z,2.40
2023-04-29T20:24:02.372Z,2.30
2023-04-29T20:26:30.557Z,2.60
2023-04-29T20:28:58.654Z,2.47
2023-04-29T20:31:26.720Z,2.33
2023-04-29T20:33:55.198Z,2.70
2023-04-29T20:36:23.308Z,2.40
2023-04-29T20:38:51.388Z,2.20
2023-04-29T20:41:19.361Z,2.55
2023-04-29T20:43:47.371Z,2.37
2023-04-29T20:46:15.460Z,1.90
2023-04-29T20:48:43.651Z,2.95
2023-04-29T20:51:13.645Z,2.85
2023-04-29T20:53:41.806Z,2.42
2023-04-29T20:56:12.570Z,2.90
2023-04-29T20:58:40.677Z,2.35
2023-04-29T21:01:09.167Z,2.40
2023-04-29T21:03:37.348Z,2.80
2023-04-29T21:06:05.571Z,2.65
2023-04-29T21:08:33.533Z,2.58
2023-04-29T21:11:01.488Z,2.72
2023-04-29T21:13:29.478Z,2.97
2023-04-29T21:15:57.490Z,2.40
2023-04-29T21:18:25.687Z,2.60
2023-04-29T21:20:54.233Z,2.90
2023-04-29T21:23:22.193Z,3.15
2023-04-29T21:25:50.176Z,2.58
2023-04-29T21:28:18.118Z,2.55
2023-04-29T21:30:46.101Z,3.25
2023-04-29T21:33:14.150Z,2.87
2023-04-29T21:35:43.419Z,3.03
2023-04-29T21:38:11.409Z,3.22
2023-04-29T21:40:43.096Z,3.55
2023-04-29T21:43:11.505Z,2.92
2023-04-29T21:45:39.506Z,3.60
2023-04-29T21:48:15.754Z,3.40
2023-04-29T21:50:44.208Z,3.15
2023-04-29T21:53:14.535Z,3.40
2023-04-29T21:55:44.079Z,3.42
2023-04-29T21:58:12.299Z,3.30
2023-04-29T22:00:42.338Z,3.08
2023-04-29T22:03:11.418Z,3.17
2023-04-29T22:05:39.439Z,3.12
2023-04-29T22:08:08.686Z,3.90
2023-04-29T22:10:36.843Z,3.70
2023-04-29T22:13:04.806Z,3.40
2023-04-29T22:15:32.794Z,3.15
2023-04-29T22:18:00.938Z,3.70
2023-04-29T22:20:29.100Z,3.60
2023-04-29T22:22:57.466Z,3.78
2023-04-29T22:25:25.458Z,3.50
2023-04-29T22:27:53.419Z,3.10
2023-04-29T22:30:22.035Z,3.33
2023-04-29T22:32:50.073Z,3.97
2023-04-29T22:35:18.129Z,3.35
2023-04-29T22:37:46.096Z,3.25
2023-04-29T22:40:14.701Z,3.40
2023-04-29T22:42:44.166Z,3.45
2023-04-29T22:45:13.375Z,3.40
2023-04-29T22:47:41.550Z,3.20
2023-04-29T22:50:09.719Z,3.53
2023-04-29T22:52:37.763Z,3.75
2023-04-29T22:55:05.990Z,3.72
2023-04-29T22:57:34.009Z,3.78
2023-04-29T23:00:02.071Z,3.45
2023-04-29T23:02:30.628Z,3.80
2023-04-29T23:04:59.237Z,3.30
2023-04-29T23:07:27.516Z,3.42
2023-04-29T23:09:55.746Z,3.58
2023-04-29T23:12:23.949Z,3.50
2023-04-29T23:14:52.649Z,3.40
2023-04-29T23:17:20.656Z,3.40
2023-04-29T23:19:48.728Z,3.50
2023-04-29T23:22:18.307Z,3.28
2023-04-29T23:24:46.535Z,2.95
2023-04-29T23:27:14.658Z,3.50
2023-04-29T23:29:42.898Z,3.83
2023-04-29T23:32:11.164Z,3.58
2023-04-29T23:34:39.174Z,3.40
2023-04-29T23:37:07.134Z,3.28
2023-04-29T23:39:35.146Z,3.78
2023-04-29T23:42:04.224Z,3.25
2023-04-29T23:44:32.207Z,3.22
2023-04-29T23:47:00.153Z,3.37
2023-04-29T23:49:28.116Z,3.22
2023-04-29T23:51:56.026Z,3.40
2023-04-29T23:54:24.068Z,3.42
2023-04-29T23:56:52.113Z,3.37
2023-04-29T23:59:20.238Z,3.70
